Track Ильченко Даниил

Time Latitude Longitude Accuracy (66% radius in meters) Altitude (meters) Speed (km/hour) Bearing (degrees) Battery (%) GPS flag
07:04:28 57.208104 60.114494 0 0 0 0 1 delete
07:04:25 57.208166 60.114415 0 0 0 0 1 delete
07:04:23 57.208209 60.114388 0 0 0 0 1 delete
07:04:17 57.208363 60.114422 0 0 0 0 1 delete
07:04:13 57.208423 60.114711 0 0 0 0 1 delete
07:04:08 57.208435 60.115115 0 0 0 0 1 delete
07:04:03 57.208543 60.115471 0 0 0 0 1 delete
07:03:58 57.208631 60.115693 0 0 0 0 1 delete
07:03:57 57.208657 60.115714 0 0 0 0 1 delete
07:03:51 57.208830 60.115858 0 0 0 0 1 delete
07:03:45 57.208972 60.116136 0 0 0 0 1 delete
07:03:37 57.209099 60.116250 0 0 0 0 1 delete
07:03:33 57.209102 60.116558 0 0 0 0 1 delete
07:03:28 57.209024 60.116901 0 0 0 0 1 delete
07:03:21 57.209096 60.117160 0 0 0 0 1 delete
07:03:12 57.209273 60.117106 0 0 0 0 1 delete
07:03:07 57.209418 60.117143 0 0 0 0 1 delete
07:02:59 57.209597 60.117187 0 0 0 0 1 delete
07:02:56 57.209687 60.117214 0 0 0 0 1 delete
07:02:49 57.209851 60.117380 0 0 0 0 1 delete
07:02:45 57.209902 60.117407 0 0 0 0 1 delete
07:02:38 57.210101 60.117473 0 0 0 0 1 delete
07:02:30 57.210256 60.117634 0 0 0 0 1 delete
07:02:25 57.210364 60.117847 0 0 0 0 1 delete
07:02:18 57.210523 60.118060 0 0 0 0 1 delete
07:02:12 57.210682 60.118269 0 0 0 0 1 delete
07:02:06 57.210822 60.118481 0 0 0 0 1 delete
07:01:58 57.211004 60.118552 0 0 0 0 1 delete
07:01:57 57.211019 60.118532 0 0 0 0 1 delete
07:01:52 57.211110 60.118414 0 0 0 0 1 delete
07:01:51 57.211136 60.118411 0 0 0 0 1 delete
07:01:45 57.211305 60.118595 0 0 0 0 1 delete
07:01:42 57.211367 60.118697 0 0 0 0 1 delete
07:01:40 57.211391 60.118775 0 0 0 0 1 delete
07:01:29 57.211549 60.118959 0 0 0 0 1 delete
07:01:19 57.211639 60.118813 0 0 0 0 1 delete
07:01:07 57.211775 60.118584 0 0 0 0 1 delete
07:00:58 57.211899 60.118306 0 0 0 0 1 delete
07:00:49 57.212006 60.118018 0 0 0 0 1 delete
07:00:41 57.212074 60.117803 0 0 0 0 1 delete
07:00:32 57.212203 60.117546 0 0 0 0 1 delete
07:00:26 57.212265 60.117479 0 0 0 0 1 delete
07:00:24 57.212279 60.117464 0 0 0 0 1 delete
07:00:15 57.212434 60.117292 0 0 0 0 1 delete
07:00:09 57.212587 60.117118 0 0 0 0 1 delete
07:00:07 57.212650 60.117111 0 0 0 0 1 delete
07:00:03 57.212788 60.117198 0 0 0 0 1 delete
06:59:59 57.212823 60.117481 0 0 0 0 1 delete
06:59:54 57.212833 60.117820 0 0 0 0 1 delete
06:59:46 57.212973 60.118075 0 0 0 0 1 delete